Allison, North Carolina
Current Conditions -  °F | °C
As of 2:46 AM on Saturday 01 Nov 2014 (Local Time) from KDAN Reporting Station
Light Rain Light Rain  
Wind Chill: 45°   Ceiling: 3500
Heat Index: 48°   Visibility: 6mi
Dew Point: 43°   Wind: 6mph
Humidity: 83%   Direction: 30°NNE
Pressure: 29.77"   Gusts: NA
Location:  36.4355°N, 79.5464°W
Report Text: KDAN 010646Z AUTO 03005KT 6SM -RA SCT006 BKN035 OVC043 09/06 A2977 RMK AO2 RAB01 P0009 T00890061
Loading
Personal Weather Stations






























Interactive Weather Map
Tropical Storm Tracking
New forecast layout! Learn more

10-Day Weather Forecast

Advertisements
Track Severe Weather on mobile